Weather observations for the past three days for
Beef Island
Imperial (Metric)
Date Time (ast) Wind (mph) Vis. (mi.) Weather Sky Cond. Temperature (ºF) Relative Humidity Wind Chill (°F) Heat Index (°F) Pressure Precipitation (in)
Air Dwpt 6 hour altimeter (in) sea level (mb) 1 hr 3 hr 6 hr
Max. Min.
10 09:00 E 13 10.00 Partly Cloudy SCT019 84.2 71.6 66% 90 30.07 0.0
10 08:00 E 13 10.00 Mostly Cloudy BKN019 82.4 71.6 70% 87 30.05 0.0
10 07:00 E 13 10.00 Partly Cloudy SCT019 80.6 71.6 74% 85 30.04 0.0
09 22:00 E 14 10.00 Partly Cloudy SCT020 80.6 73.4 79% 85 30.02 0.0
09 21:00 E 13 10.00 A Few Clouds FEW021 80.6 71.6 74% 85 30.02 0.0
09 20:00 E 15 10.00 A Few Clouds FEW021 80.6 71.6 74% 85 30.01 0.0
09 19:00 NE 14 10.00 Partly Cloudy SCT021 80.6 71.6 74% 85 29.99 0.0
09 18:00 E 14 10.00 Partly Cloudy SCT021 82.4 69.8 66% 86 29.98 0.0
09 17:00 E 15 10.00 Partly Cloudy SCT021 82.4 69.8 66% 86 29.98 0.0
09 16:00 E 14 10.00 Mostly Cloudy BKN021 86 71.6 62% 92 29.98 0.0
09 15:00 E 12 10.00 Mostly Cloudy BKN022 86 71.6 62% 92 29.99 0.0
09 14:00 E 13 10.00 Mostly Cloudy BKN022 87.8 71.6 59% 94 30 0.0
09 13:00 E 14 10.00 Partly Cloudy SCT023 86 71.6 62% 92 30.01 0.0
09 12:00 E 14 G 26 10.00 Partly Cloudy SCT023 86 69.8 59% 91 30.03 0.0
09 11:00 E 14 10.00 Partly Cloudy SCT023 86 69.8 59% 91 30.03 0.0
09 10:00 E 13 10.00 Partly Cloudy SCT023 86 69.8 59% 91 30.03 0.0
09 09:00 E 12 10.00 Partly Cloudy SCT022 84.2 69.8 62% 88 30.03 0.0
09 08:00 E 12 10.00 NULL NULL 82.4 69.8 66% 86 30.01 0.0
09 07:00 E 8 10.00 Partly Cloudy SCT021 80.6 69.8 70% 84 30 0.0
08 22:00 NE 8 10.00 A Few Clouds FEW022 78.8 71.6 79% 82 30.01 0.0
08 21:00 NE 9 10.00 A Few Clouds FEW022 80.6 71.6 74% 85 29.99 0.0
08 20:00 NE 8 10.00 A Few Clouds FEW022 80.6 71.6 74% 85 29.98 0.0
08 19:00 E 8 10.00 A Few Clouds FEW020 80.6 69.8 70% 84 29.96 0.0
08 18:00 E 12 10.00 Showers in Vicinity SCT020 80.6 71.6 74% 85 29.95 0.0
08 17:00 E 7 10.00 Partly Cloudy SCT022 84.2 71.6 66% 90 29.93 0.0
08 16:00 NE 10 10.00 Partly Cloudy SCT024 84.2 71.6 66% 90 29.94 0.0
08 15:00 E 8 10.00 Partly Cloudy SCT024 84.2 71.6 66% 90 29.95 0.0
08 14:00 E 10 10.00 Partly Cloudy SCT022 87.8 71.6 59% 94 29.96 0.0
08 13:00 E 9 10.00 Partly Cloudy SCT022 86 71.6 62% 92 29.98 0.0
08 12:00 SE 8 10.00 Partly Cloudy SCT022 86 71.6 62% 92 29.99 0.0
08 11:00 SE 9 10.00 Partly Cloudy SCT022 86 69.8 59% 91 30 0.0
08 10:00 E 8 10.00 Partly Cloudy SCT022 84.2 71.6 66% 90 30 0.0
08 09:00 SE 8 10.00 Mostly Cloudy BKN022 84.2 71.6 66% 90 30 0.0
08 08:00 E 8 10.00 A Few Clouds FEW022 82.4 71.6 70% 87 29.99 0.0
08 07:00 E 9 10.00 Mostly Cloudy BKN018 80.6 73.4 79% 85 29.98 0.0
07 22:00 NE 9 10.00 A Few Clouds FEW024 78.8 71.6 79% 82 30.02 0.0
07 21:00 NE 8 10.00 A Few Clouds FEW024 80.6 71.6 74% 85 30.01 0.0
07 20:00 NE 7 10.00 A Few Clouds FEW020 80.6 71.6 74% 85 29.98 0.0
07 19:00 NE 7 10.00 A Few Clouds FEW021 80.6 71.6 74% 85 29.98 0.0
07 18:00 E 10 10.00 A Few Clouds FEW021 82.4 71.6 70% 87 29.98 0.0
07 17:00 NE 9 10.00 A Few Clouds FEW021 82.4 71.6 70% 87 29.96 0.0
07 16:00 E 7 10.00 Partly Cloudy SCT022 84.2 73.4 70% 91 29.97 0.0
07 15:00 E 7 10.00 Partly Cloudy SCT022 84.2 73.4 70% 91 29.98 0.0
07 14:00 E 8 10.00 Partly Cloudy SCT022 84.2 71.6 66% 90 30 0.0
07 13:00 E 8 10.00 Partly Cloudy SCT020 84.2 71.6 66% 90 30.02 0.0
07 12:00 E 8 10.00 Partly Cloudy SCT020 86 71.6 62% 92 30.04 0.0
07 11:00 SE 9 10.00 Partly Cloudy SCT020 86 73.4 66% 93 30.05 0.0
07 10:00 SE 9 10.00 Partly Cloudy SCT020 86 73.4 66% 93 30.05 0.0
Date Time (ast) Wind (mph) Vis. (mi.) Weather Sky Cond. Air Dwpt Max. Min. Relative Humidity Wind Chill (°F) Heat Index (°F) altimeter (in) sea level (mb) 1 hr 3 hr 6 hr
6 hour
Temperature (ºF) Pressure Precipitation (in)